ADDS METAR Data INFO
IDs: Format: Raw Decoded Include TAF

Data at: 0759 UTC 23 Jul 2018

KSAD 230751Z AUTO 32011KT 10SM CLR 32/08 A2998 RMK AO2 SLP083 T03170083
KSAD 230651Z AUTO 31013KT 10SM CLR 32/09 A2999 RMK AO2 SLP088 T03220089 404170256
KSAD 230551Z AUTO 31012KT 10SM CLR 32/09 A3000 RMK AO2 SLP090 T03220089 10406 20322 51015
KSAD 230451Z AUTO 32015KT 10SM CLR 33/09 A2999 RMK AO2 SLP089 T03330089
KSAD 230351Z AUTO 31012KT 10SM CLR 34/09 A2997 RMK AO2 SLP083 T03390089
KSAD 230251Z AUTO 29012KT 10SM CLR 35/09 A2995 RMK AO2 SLP075 T03500089 53006
KSAD 230151Z AUTO 29016KT 10SM CLR 37/08 A2993 RMK AO2 SLP067 T03720083
KSAD 230051Z AUTO 29017KT 10SM CLR 38/08 A2993 RMK AO2 SLP068 T03830078
KSAD 222351Z AUTO 29017G25KT 10SM CLR 41/09 A2993 RMK AO2 SLP069 T04060089 10417 20361 56018
KSAD 222251Z AUTO 30013G20KT 10SM CLR 41/09 A2994 RMK AO2 SLP071 T04110094
KSAD 222151Z AUTO 29010G20KT 10SM CLR 41/10 A2997 RMK AO2 SLP079 T04110100
KSAD 222051Z AUTO 27008G15KT 10SM CLR 39/09 A2999 RMK AO2 SLP088 T03940089 56021
KSAD 221951Z AUTO 27011G17KT 10SM CLR 39/11 A3001 RMK AO2 SLP095 T03890106
KSAD 221851Z AUTO 27009KT 10SM CLR 37/12 A3004 RMK AO2 SLP104 T03720117
KSAD 221751Z AUTO 28013KT 10SM CLR 36/13 A3006 RMK AO2 SLP112 T03610128 10361 20256 58010
KSAD 221651Z AUTO 30013KT 10SM CLR 34/14 A3007 RMK AO2 SLP116 T03440139
KSAD 221551Z AUTO 30013KT 10SM CLR 33/14 A3008 RMK AO2 SLP120 T03280139
KSAD 221451Z AUTO 30011KT 10SM CLR 31/14 A3009 RMK AO2 SLP124 T03110144 51009
KSAD 221351Z AUTO 31008KT 10SM CLR 29/15 A3008 RMK AO2 SLP122 T02940150
KSAD 221251Z AUTO 33005KT 10SM CLR 26/15 A3007 RMK AO2 SLP121 T02610150
KSAD 221151Z AUTO 30008KT 10SM CLR 26/16 A3006 RMK AO2 SLP116 T02610156 10306 20261 53003
KSAD 221051Z AUTO 30010KT 10SM CLR 27/16 A3005 RMK AO2 SLP111 T02670156
KSAD 220951Z AUTO 31008KT 10SM CLR 28/16 A3005 RMK AO2 SLP107 T02780156
KSAD 220851Z AUTO 32010KT 10SM CLR 28/16 A3005 RMK AO2 SLP110 T02830156 51006
KSAD 220751Z AUTO 30011KT 10SM CLR 29/16 A3005 RMK AO2 SLP108 T02890156
KSAD 220651Z AUTO 32013KT 10SM CLR 30/16 A3004 RMK AO2 SLP107 T03000156 403940256
KSAD 220551Z AUTO 30012KT 10SM CLR 31/15 A3003 RMK AO2 SLP103 T03060150 10367 20306 51017
KSAD 220451Z AUTO 31015KT 10SM CLR 32/14 A3003 RMK AO2 SLP102 T03170144
KSAD 220351Z AUTO 31014KT 10SM CLR 32/14 A3001 RMK AO2 PK WND 30026/0330 SLP100 T03220144
KSAD 220251Z AUTO 30016G21KT 10SM CLR 33/15 A2998 RMK AO2 SLP087 T03330150 53012
KSAD 220151Z AUTO 28010KT 10SM CLR 34/15 A2995 RMK AO2 SLP079 T03390150
KSAD 220051Z AUTO 28012KT 10SM CLR 36/16 A2993 RMK AO2 LTG DSNT SW SLP072 T03560156
KSAD 212351Z AUTO 27015KT 10SM CLR 37/15 A2994 RMK AO2 LTG DSNT SW SLP073 T03670150 10394 20350 55011
KSAD 212251Z AUTO 27012G15KT 10SM CLR 38/12 A2993 RMK AO2 SLP070 T03830122
KSAD 212151Z AUTO 26008KT 230V300 10SM CLR 39/12 A2995 RMK AO2 SLP074 T03940117
KSAD 212051Z AUTO 36005KT 10SM CLR 38/14 A2997 RMK AO2 SLP084 T03780139 58012